Time,TemperatureF,DewpointF,PressureIn,WindDirection,WindDirectionDegrees,WindSpeedMPH,WindSpeedGustMPH,Humidity,HourlyPrecipIn,Conditions,Clouds,dailyrainin,SoftwareType,DateUTC
2013-12-23 08:52:00,26.0,22.0,30.27,North,-999,-999.0,-999.0,86,0.00,,,0.00,,2013-12-23 13:52:00,
2013-12-23 09:02:00,26.0,22.0,30.27,North,-999,-999.0,-999.0,86,0.00,,,0.00,,2013-12-23 14:02:00,
2013-12-23 09:11:00,26.0,22.0,30.27,North,-999,-999.0,-999.0,86,0.00,,,0.00,,2013-12-23 14:11:00,
2013-12-23 09:22:00,26.0,22.0,30.27,North,-999,-999.0,-999.0,86,0.00,,,0.00,,2013-12-23 14:22:00,
2013-12-23 09:32:00,26.0,22.0,30.27,North,-999,-999.0,-999.0,86,0.00,,,0.00,,2013-12-23 14:32:00,
2013-12-23 15:52:00,19.0,14.0,30.34,West,270,0.0,0.0,82,0.00,,,0.00,,2013-12-23 20:52:00,
2013-12-23 16:11:00,20.0,15.0,30.34,North,-999,-999.0,-999.0,82,0.00,,,0.00,,2013-12-23 21:11:00,
2013-12-23 16:22:00,20.0,15.0,30.34,North,-999,-999.0,-999.0,82,0.00,,,0.00,,2013-12-23 21:22:00,
2013-12-23 16:54:00,22.0,17.0,30.35,NW,315,2.0,2.0,82,0.00,,,0.00,,2013-12-23 21:54:00,
2013-12-23 17:02:00,24.0,19.0,30.36,North,-999,-999.0,-999.0,82,0.00,,,0.00,,2013-12-23 22:02:00,
2013-12-23 17:23:00,24.0,19.0,30.36,North,-999,-999.0,-999.0,82,0.00,,,0.00,,2013-12-23 22:23:00,
2013-12-23 17:33:00,24.0,19.0,30.36,North,-999,-999.0,-999.0,82,0.00,,,0.00,,2013-12-23 22:33:00,
2013-12-23 17:43:00,24.0,19.0,30.36,North,-999,-999.0,-999.0,82,0.00,,,0.00,,2013-12-23 22:43:00,
2013-12-23 17:53:00,24.0,19.0,30.36,North,-999,-999.0,-999.0,82,0.00,,,0.00,,2013-12-23 22:53:00,
2013-12-23 18:54:00,22.0,17.0,30.37,North,-999,-999.0,-999.0,81,0.00,,,0.00,,2013-12-23 23:54:00,
2013-12-23 19:03:00,22.0,17.0,30.37,North,-999,-999.0,-999.0,81,0.00,,,0.00,,2013-12-24 00:03:00,
2013-12-23 19:11:00,22.0,17.0,30.37,North,-999,-999.0,-999.0,81,0.00,,,0.00,,2013-12-24 00:11:00,
2013-12-23 19:22:00,22.0,17.0,30.37,North,-999,-999.0,-999.0,81,0.00,,,0.00,,2013-12-24 00:22:00,
2013-12-23 19:32:00,22.0,17.0,30.37,North,-999,-999.0,-999.0,81,0.00,,,0.00,,2013-12-24 00:32:00,
2013-12-23 21:52:00,16.0,10.0,30.41,WNW,292,5.0,5.0,77,0.00,,,0.00,,2013-12-24 02:52:00,
2013-12-23 22:11:00,16.0,10.0,30.40,North,-999,-999.0,-999.0,77,0.00,,,0.00,,2013-12-24 03:11:00,
2013-12-23 22:22:00,16.0,10.0,30.40,North,-999,-999.0,-999.0,77,0.00,,,0.00,,2013-12-24 03:22:00,
2013-12-23 22:33:00,16.0,10.0,30.40,North,-999,-999.0,-999.0,77,0.00,,,0.00,,2013-12-24 03:33:00,
2013-12-23 22:43:00,16.0,10.0,30.40,North,-999,-999.0,-999.0,77,0.00,,,0.00,,2013-12-24 03:43:00,
2013-12-23 23:53:00,13.0,7.0,30.41,North,0,4.0,4.0,77,0.00,,,0.00,,2013-12-24 04:53:00,